sensor_id;sensor_type;location;lat;lon;timestamp;temperature;humidity
25953;DHT22;13750;50.804;8.764;2022-08-07T00:00:26;16.80;50.70
25953;DHT22;13750;50.804;8.764;2022-08-07T00:02:53;16.70;50.90
25953;DHT22;13750;50.804;8.764;2022-08-07T00:05:22;16.80;51.00
25953;DHT22;13750;50.804;8.764;2022-08-07T00:07:48;16.70;50.90
25953;DHT22;13750;50.804;8.764;2022-08-07T00:10:14;16.70;50.90
25953;DHT22;13750;50.804;8.764;2022-08-07T00:12:40;16.60;51.20
25953;DHT22;13750;50.804;8.764;2022-08-07T00:15:06;16.60;51.50
25953;DHT22;13750;50.804;8.764;2022-08-07T00:17:32;16.60;51.80
25953;DHT22;13750;50.804;8.764;2022-08-07T00:19:57;16.60;51.70
25953;DHT22;13750;50.804;8.764;2022-08-07T00:22:23;16.60;51.70
25953;DHT22;13750;50.804;8.764;2022-08-07T00:24:48;16.60;51.80
25953;DHT22;13750;50.804;8.764;2022-08-07T00:27:14;16.50;51.90
25953;DHT22;13750;50.804;8.764;2022-08-07T00:29:40;16.50;51.90
25953;DHT22;13750;50.804;8.764;2022-08-07T00:32:05;16.50;51.80
25953;DHT22;13750;50.804;8.764;2022-08-07T00:34:31;16.40;52.00
25953;DHT22;13750;50.804;8.764;2022-08-07T00:36:57;16.40;52.00
25953;DHT22;13750;50.804;8.764;2022-08-07T00:39:23;16.40;52.00
25953;DHT22;13750;50.804;8.764;2022-08-07T00:41:54;16.40;52.00
25953;DHT22;13750;50.804;8.764;2022-08-07T00:44:20;16.40;52.20
25953;DHT22;13750;50.804;8.764;2022-08-07T00:46:46;16.30;52.30
25953;DHT22;13750;50.804;8.764;2022-08-07T00:49:11;16.40;52.30
25953;DHT22;13750;50.804;8.764;2022-08-07T00:51:37;16.30;52.20
25953;DHT22;13750;50.804;8.764;2022-08-07T00:54:03;16.30;52.40
25953;DHT22;13750;50.804;8.764;2022-08-07T00:56:29;16.30;52.50
25953;DHT22;13750;50.804;8.764;2022-08-07T00:58:55;16.30;52.60
25953;DHT22;13750;50.804;8.764;2022-08-07T01:01:21;16.20;52.50
25953;DHT22;13750;50.804;8.764;2022-08-07T01:03:48;16.20;52.60
25953;DHT22;13750;50.804;8.764;2022-08-07T01:06:14;16.10;52.80
25953;DHT22;13750;50.804;8.764;2022-08-07T01:08:40;16.10;52.80
25953;DHT22;13750;50.804;8.764;2022-08-07T01:11:07;16.10;53.00
25953;DHT22;13750;50.804;8.764;2022-08-07T01:13:33;16.10;53.10
25953;DHT22;13750;50.804;8.764;2022-08-07T01:15:59;16.10;53.10
25953;DHT22;13750;50.804;8.764;2022-08-07T01:18:25;16.00;53.10
25953;DHT22;13750;50.804;8.764;2022-08-07T01:21:08;16.00;53.10
25953;DHT22;13750;50.804;8.764;2022-08-07T01:23:34;16.00;53.30
25953;DHT22;13750;50.804;8.764;2022-08-07T01:26:01;16.00;53.40
25953;DHT22;13750;50.804;8.764;2022-08-07T01:28:28;15.90;53.60
25953;DHT22;13750;50.804;8.764;2022-08-07T01:30:55;15.90;53.50
25953;DHT22;13750;50.804;8.764;2022-08-07T01:33:22;15.80;53.40
25953;DHT22;13750;50.804;8.764;2022-08-07T01:35:48;15.80;53.60
25953;DHT22;13750;50.804;8.764;2022-08-07T01:38:14;15.70;53.60
25953;DHT22;13750;50.804;8.764;2022-08-07T01:40:41;15.80;53.60
25953;DHT22;13750;50.804;8.764;2022-08-07T01:43:07;15.70;53.70
25953;DHT22;13750;50.804;8.764;2022-08-07T01:45:33;15.70;53.80
25953;DHT22;13750;50.804;8.764;2022-08-07T01:47:59;15.70;53.90
25953;DHT22;13750;50.804;8.764;2022-08-07T01:50:26;15.70;53.70
25953;DHT22;13750;50.804;8.764;2022-08-07T01:52:56;15.60;53.80
25953;DHT22;13750;50.804;8.764;2022-08-07T01:55:34;15.70;53.90
25953;DHT22;13750;50.804;8.764;2022-08-07T01:58:01;15.60;54.10
25953;DHT22;13750;50.804;8.764;2022-08-07T02:00:31;15.60;54.10
25953;DHT22;13750;50.804;8.764;2022-08-07T02:03:04;15.60;54.20
25953;DHT22;13750;50.804;8.764;2022-08-07T02:05:35;15.60;54.20
25953;DHT22;13750;50.804;8.764;2022-08-07T02:08:05;15.50;54.30
25953;DHT22;13750;50.804;8.764;2022-08-07T02:10:33;15.50;54.50
25953;DHT22;13750;50.804;8.764;2022-08-07T02:13:00;15.40;54.50
25953;DHT22;13750;50.804;8.764;2022-08-07T02:15:28;15.40;54.60
25953;DHT22;13750;50.804;8.764;2022-08-07T02:17:55;15.40;54.60
25953;DHT22;13750;50.804;8.764;2022-08-07T02:20:22;15.40;54.60
25953;DHT22;13750;50.804;8.764;2022-08-07T02:22:50;15.40;54.70
25953;DHT22;13750;50.804;8.764;2022-08-07T02:25:17;15.40;54.90
25953;DHT22;13750;50.804;8.764;2022-08-07T02:27:45;15.30;54.90
25953;DHT22;13750;50.804;8.764;2022-08-07T02:30:11;15.30;54.80
25953;DHT22;13750;50.804;8.764;2022-08-07T02:32:38;15.30;54.90
25953;DHT22;13750;50.804;8.764;2022-08-07T02:35:05;15.30;55.00
25953;DHT22;13750;50.804;8.764;2022-08-07T02:37:34;15.30;54.90
25953;DHT22;13750;50.804;8.764;2022-08-07T02:40:02;15.30;55.00
25953;DHT22;13750;50.804;8.764;2022-08-07T02:42:30;15.30;55.10
25953;DHT22;13750;50.804;8.764;2022-08-07T02:44:57;15.30;55.20
25953;DHT22;13750;50.804;8.764;2022-08-07T02:47:24;15.20;55.20
25953;DHT22;13750;50.804;8.764;2022-08-07T02:49:50;15.20;55.00
25953;DHT22;13750;50.804;8.764;2022-08-07T02:52:22;15.20;55.30
25953;DHT22;13750;50.804;8.764;2022-08-07T02:54:49;15.20;55.40
25953;DHT22;13750;50.804;8.764;2022-08-07T02:57:17;15.10;55.50
25953;DHT22;13750;50.804;8.764;2022-08-07T02:59:47;15.10;55.60
25953;DHT22;13750;50.804;8.764;2022-08-07T03:02:15;15.10;55.60
25953;DHT22;13750;50.804;8.764;2022-08-07T03:04:43;15.10;55.60
25953;DHT22;13750;50.804;8.764;2022-08-07T03:07:10;15.10;55.70
25953;DHT22;13750;50.804;8.764;2022-08-07T03:09:36;15.10;55.70
25953;DHT22;13750;50.804;8.764;2022-08-07T03:12:06;15.00;55.80
25953;DHT22;13750;50.804;8.764;2022-08-07T03:14:33;15.10;55.90
25953;DHT22;13750;50.804;8.764;2022-08-07T03:17:01;15.10;55.90
25953;DHT22;13750;50.804;8.764;2022-08-07T03:19:27;15.10;56.00
25953;DHT22;13750;50.804;8.764;2022-08-07T03:21:53;15.00;56.10
25953;DHT22;13750;50.804;8.764;2022-08-07T03:24:20;15.00;56.20
25953;DHT22;13750;50.804;8.764;2022-08-07T03:26:47;15.00;56.20
25953;DHT22;13750;50.804;8.764;2022-08-07T03:29:15;14.90;56.40
25953;DHT22;13750;50.804;8.764;2022-08-07T03:31:42;14.90;56.20
25953;DHT22;13750;50.804;8.764;2022-08-07T03:34:09;14.80;56.50
25953;DHT22;13750;50.804;8.764;2022-08-07T03:36:37;14.80;56.50
25953;DHT22;13750;50.804;8.764;2022-08-07T03:39:08;14.80;56.80
25953;DHT22;13750;50.804;8.764;2022-08-07T03:41:35;14.80;56.80
25953;DHT22;13750;50.804;8.764;2022-08-07T03:44:02;14.80;57.00
25953;DHT22;13750;50.804;8.764;2022-08-07T03:46:28;14.80;56.70
25953;DHT22;13750;50.804;8.764;2022-08-07T03:48:55;14.70;57.00
25953;DHT22;13750;50.804;8.764;2022-08-07T03:51:21;14.70;57.20
25953;DHT22;13750;50.804;8.764;2022-08-07T03:53:47;14.60;57.20
25953;DHT22;13750;50.804;8.764;2022-08-07T03:56:17;14.60;57.40
25953;DHT22;13750;50.804;8.764;2022-08-07T03:58:44;14.60;57.40
25953;DHT22;13750;50.804;8.764;2022-08-07T04:01:10;14.60;57.70
25953;DHT22;13750;50.804;8.764;2022-08-07T04:03:38;14.60;57.70
25953;DHT22;13750;50.804;8.764;2022-08-07T04:06:07;14.60;57.90
25953;DHT22;13750;50.804;8.764;2022-08-07T04:08:33;14.50;57.90
25953;DHT22;13750;50.804;8.764;2022-08-07T04:10:59;14.60;58.00
25953;DHT22;13750;50.804;8.764;2022-08-07T04:13:25;14.50;58.10
25953;DHT22;13750;50.804;8.764;2022-08-07T04:15:51;14.40;58.20
25953;DHT22;13750;50.804;8.764;2022-08-07T04:18:16;14.40;58.30
25953;DHT22;13750;50.804;8.764;2022-08-07T04:20:42;14.40;58.50
25953;DHT22;13750;50.804;8.764;2022-08-07T04:23:08;14.30;58.50
25953;DHT22;13750;50.804;8.764;2022-08-07T04:25:35;14.30;58.60
25953;DHT22;13750;50.804;8.764;2022-08-07T04:28:08;14.30;58.80
25953;DHT22;13750;50.804;8.764;2022-08-07T04:30:35;14.30;58.80
25953;DHT22;13750;50.804;8.764;2022-08-07T04:33:08;14.30;58.80
25953;DHT22;13750;50.804;8.764;2022-08-07T04:35:36;14.30;59.00
25953;DHT22;13750;50.804;8.764;2022-08-07T04:38:06;14.30;59.00
25953;DHT22;13750;50.804;8.764;2022-08-07T04:40:33;14.20;59.20
25953;DHT22;13750;50.804;8.764;2022-08-07T04:42:59;14.20;59.00
25953;DHT22;13750;50.804;8.764;2022-08-07T04:45:42;14.20;58.90
25953;DHT22;13750;50.804;8.764;2022-08-07T04:48:38;14.20;59.20
25953;DHT22;13750;50.804;8.764;2022-08-07T04:51:12;14.20;59.20
25953;DHT22;13750;50.804;8.764;2022-08-07T04:53:55;14.20;59.30
25953;DHT22;13750;50.804;8.764;2022-08-07T04:56:54;14.20;59.50
25953;DHT22;13750;50.804;8.764;2022-08-07T05:02:09;14.30;59.40
25953;DHT22;13750;50.804;8.764;2022-08-07T05:04:53;14.30;59.30
25953;DHT22;13750;50.804;8.764;2022-08-07T05:10:03;14.40;59.40
25953;DHT22;13750;50.804;8.764;2022-08-07T05:12:52;14.30;59.20
25953;DHT22;13750;50.804;8.764;2022-08-07T05:15:36;14.20;59.30
25953;DHT22;13750;50.804;8.764;2022-08-07T05:20:53;14.30;59.70
25953;DHT22;13750;50.804;8.764;2022-08-07T05:23:41;14.30;59.70
25953;DHT22;13750;50.804;8.764;2022-08-07T05:26:13;14.30;59.60
25953;DHT22;13750;50.804;8.764;2022-08-07T05:28:41;14.40;59.50
25953;DHT22;13750;50.804;8.764;2022-08-07T05:31:07;14.40;59.40
25953;DHT22;13750;50.804;8.764;2022-08-07T05:33:36;14.40;59.40
25953;DHT22;13750;50.804;8.764;2022-08-07T05:36:38;14.50;59.50
25953;DHT22;13750;50.804;8.764;2022-08-07T05:38:58;14.50;59.50
25953;DHT22;13750;50.804;8.764;2022-08-07T05:41:25;14.60;59.50
25953;DHT22;13750;50.804;8.764;2022-08-07T05:43:53;14.60;59.40
25953;DHT22;13750;50.804;8.764;2022-08-07T05:46:21;14.60;59.40
25953;DHT22;13750;50.804;8.764;2022-08-07T05:48:49;14.60;59.40
25953;DHT22;13750;50.804;8.764;2022-08-07T05:51:15;14.60;59.40
25953;DHT22;13750;50.804;8.764;2022-08-07T05:53:41;14.70;59.30
25953;DHT22;13750;50.804;8.764;2022-08-07T05:56:08;14.70;59.40
25953;DHT22;13750;50.804;8.764;2022-08-07T05:58:37;14.70;59.40
25953;DHT22;13750;50.804;8.764;2022-08-07T06:01:05;14.80;59.40
25953;DHT22;13750;50.804;8.764;2022-08-07T06:03:32;14.90;59.30
25953;DHT22;13750;50.804;8.764;2022-08-07T06:06:00;14.90;59.20
25953;DHT22;13750;50.804;8.764;2022-08-07T06:08:26;15.00;59.20
25953;DHT22;13750;50.804;8.764;2022-08-07T06:10:53;15.00;59.20
25953;DHT22;13750;50.804;8.764;2022-08-07T06:13:19;15.00;59.10
25953;DHT22;13750;50.804;8.764;2022-08-07T06:15:47;15.10;59.00
25953;DHT22;13750;50.804;8.764;2022-08-07T06:18:13;15.10;59.00
25953;DHT22;13750;50.804;8.764;2022-08-07T06:20:39;15.20;58.90
25953;DHT22;13750;50.804;8.764;2022-08-07T06:23:07;15.20;58.90
25953;DHT22;13750;50.804;8.764;2022-08-07T06:25:34;15.20;58.80
25953;DHT22;13750;50.804;8.764;2022-08-07T06:28:08;15.30;58.80
25953;DHT22;13750;50.804;8.764;2022-08-07T06:30:38;15.30;58.80
25953;DHT22;13750;50.804;8.764;2022-08-07T06:33:05;15.40;58.80
25953;DHT22;13750;50.804;8.764;2022-08-07T06:35:33;15.40;58.70
25953;DHT22;13750;50.804;8.764;2022-08-07T06:37:59;15.50;58.60
25953;DHT22;13750;50.804;8.764;2022-08-07T06:40:27;15.50;58.50
25953;DHT22;13750;50.804;8.764;2022-08-07T06:42:55;15.60;58.40
25953;DHT22;13750;50.804;8.764;2022-08-07T06:45:22;15.60;57.90
25953;DHT22;13750;50.804;8.764;2022-08-07T06:47:49;15.60;57.40
25953;DHT22;13750;50.804;8.764;2022-08-07T06:50:15;15.70;57.50
25953;DHT22;13750;50.804;8.764;2022-08-07T06:52:43;15.70;57.20
25953;DHT22;13750;50.804;8.764;2022-08-07T06:55:15;15.80;56.90
25953;DHT22;13750;50.804;8.764;2022-08-07T06:57:43;15.80;57.00
25953;DHT22;13750;50.804;8.764;2022-08-07T07:00:10;15.90;57.00
25953;DHT22;13750;50.804;8.764;2022-08-07T07:02:36;15.90;57.00
25953;DHT22;13750;50.804;8.764;2022-08-07T07:05:03;15.90;56.80
25953;DHT22;13750;50.804;8.764;2022-08-07T07:07:29;16.00;56.70
25953;DHT22;13750;50.804;8.764;2022-08-07T07:09:54;16.00;56.50
25953;DHT22;13750;50.804;8.764;2022-08-07T07:12:37;16.10;56.50
25953;DHT22;13750;50.804;8.764;2022-08-07T07:15:08;16.10;56.30
25953;DHT22;13750;50.804;8.764;2022-08-07T07:18:00;16.20;56.20
25953;DHT22;13750;50.804;8.764;2022-08-07T07:20:36;16.20;56.40
25953;DHT22;13750;50.804;8.764;2022-08-07T07:23:05;16.30;56.30
25953;DHT22;13750;50.804;8.764;2022-08-07T07:25:33;16.30;56.40
25953;DHT22;13750;50.804;8.764;2022-08-07T07:28:20;16.40;56.30
25953;DHT22;13750;50.804;8.764;2022-08-07T07:30:57;16.40;56.40
25953;DHT22;13750;50.804;8.764;2022-08-07T07:33:25;16.50;56.40
25953;DHT22;13750;50.804;8.764;2022-08-07T07:35:52;16.50;56.40
25953;DHT22;13750;50.804;8.764;2022-08-07T07:38:21;16.60;56.50
25953;DHT22;13750;50.804;8.764;2022-08-07T07:40:48;16.60;56.00
25953;DHT22;13750;50.804;8.764;2022-08-07T07:43:14;16.60;56.00
25953;DHT22;13750;50.804;8.764;2022-08-07T07:45:41;16.70;56.00
25953;DHT22;13750;50.804;8.764;2022-08-07T07:48:11;16.70;55.70
25953;DHT22;13750;50.804;8.764;2022-08-07T07:50:39;16.80;55.50
25953;DHT22;13750;50.804;8.764;2022-08-07T07:53:08;16.90;55.70
25953;DHT22;13750;50.804;8.764;2022-08-07T07:55:35;16.90;55.80
25953;DHT22;13750;50.804;8.764;2022-08-07T07:58:02;16.90;55.60
25953;DHT22;13750;50.804;8.764;2022-08-07T08:00:30;17.00;55.50
25953;DHT22;13750;50.804;8.764;2022-08-07T08:03:00;17.00;55.60
25953;DHT22;13750;50.804;8.764;2022-08-07T08:05:28;17.10;55.60
25953;DHT22;13750;50.804;8.764;2022-08-07T08:07:54;17.10;55.50
25953;DHT22;13750;50.804;8.764;2022-08-07T08:10:20;17.10;55.10
25953;DHT22;13750;50.804;8.764;2022-08-07T08:12:46;17.10;55.00
25953;DHT22;13750;50.804;8.764;2022-08-07T08:15:13;17.20;54.30
25953;DHT22;13750;50.804;8.764;2022-08-07T08:17:40;17.20;54.20
25953;DHT22;13750;50.804;8.764;2022-08-07T08:20:08;17.30;54.10
25953;DHT22;13750;50.804;8.764;2022-08-07T08:22:38;17.30;54.10
25953;DHT22;13750;50.804;8.764;2022-08-07T08:25:27;17.30;53.80
25953;DHT22;13750;50.804;8.764;2022-08-07T08:28:21;17.30;53.90
25953;DHT22;13750;50.804;8.764;2022-08-07T08:30:52;17.30;53.90
25953;DHT22;13750;50.804;8.764;2022-08-07T08:33:19;17.40;53.50
25953;DHT22;13750;50.804;8.764;2022-08-07T08:35:48;17.50;53.50
25953;DHT22;13750;50.804;8.764;2022-08-07T08:38:17;17.60;53.30
25953;DHT22;13750;50.804;8.764;2022-08-07T08:40:48;17.60;53.10
25953;DHT22;13750;50.804;8.764;2022-08-07T08:43:33;17.60;52.90
25953;DHT22;13750;50.804;8.764;2022-08-07T08:46:12;17.70;52.80
25953;DHT22;13750;50.804;8.764;2022-08-07T08:48:46;17.70;52.70
25953;DHT22;13750;50.804;8.764;2022-08-07T08:51:26;17.80;52.70
25953;DHT22;13750;50.804;8.764;2022-08-07T08:54:03;17.80;52.80
25953;DHT22;13750;50.804;8.764;2022-08-07T08:56:35;17.90;51.40
25953;DHT22;13750;50.804;8.764;2022-08-07T08:59:26;18.00;51.10
25953;DHT22;13750;50.804;8.764;2022-08-07T09:11:23;18.20;51.30
25953;DHT22;13750;50.804;8.764;2022-08-07T09:14:25;18.20;51.30
25953;DHT22;13750;50.804;8.764;2022-08-07T09:20:00;18.20;51.20
25953;DHT22;13750;50.804;8.764;2022-08-07T09:22:40;18.30;49.50
25953;DHT22;13750;50.804;8.764;2022-08-07T09:28:04;18.50;49.90
25953;DHT22;13750;50.804;8.764;2022-08-07T09:36:20;18.60;45.00
25953;DHT22;13750;50.804;8.764;2022-08-07T09:38:58;18.70;45.20
25953;DHT22;13750;50.804;8.764;2022-08-07T09:44:28;18.80;44.70
25953;DHT22;13750;50.804;8.764;2022-08-07T09:52:34;18.90;45.80
25953;DHT22;13750;50.804;8.764;2022-08-07T09:55:14;18.90;45.50
25953;DHT22;13750;50.804;8.764;2022-08-07T10:00:19;19.00;44.20
25953;DHT22;13750;50.804;8.764;2022-08-07T10:08:43;19.10;44.00
25953;DHT22;13750;50.804;8.764;2022-08-07T10:17:17;19.40;42.80
25953;DHT22;13750;50.804;8.764;2022-08-07T10:23:10;19.50;43.60
25953;DHT22;13750;50.804;8.764;2022-08-07T10:28:58;19.50;42.80
25953;DHT22;13750;50.804;8.764;2022-08-07T10:31:52;19.50;41.90
25953;DHT22;13750;50.804;8.764;2022-08-07T10:34:59;19.60;42.20
25953;DHT22;13750;50.804;8.764;2022-08-07T10:40:42;19.70;42.50
25953;DHT22;13750;50.804;8.764;2022-08-07T10:43:16;19.70;42.80
25953;DHT22;13750;50.804;8.764;2022-08-07T10:45:48;19.80;42.70
25953;DHT22;13750;50.804;8.764;2022-08-07T10:48:30;19.80;42.80
25953;DHT22;13750;50.804;8.764;2022-08-07T10:54:12;19.90;43.60
25953;DHT22;13750;50.804;8.764;2022-08-07T10:56:58;19.90;42.70
25953;DHT22;13750;50.804;8.764;2022-08-07T11:02:05;20.00;41.10
25953;DHT22;13750;50.804;8.764;2022-08-07T11:15:49;20.10;43.00
25953;DHT22;13750;50.804;8.764;2022-08-07T11:18:49;20.00;42.60
25953;DHT22;13750;50.804;8.764;2022-08-07T11:21:34;20.10;42.70
25953;DHT22;13750;50.804;8.764;2022-08-07T11:24:27;20.10;42.80
25953;DHT22;13750;50.804;8.764;2022-08-07T11:27:01;20.10;42.80
25953;DHT22;13750;50.804;8.764;2022-08-07T11:34:50;20.30;42.20
25953;DHT22;13750;50.804;8.764;2022-08-07T11:54:56;20.60;41.30
25953;DHT22;13750;50.804;8.764;2022-08-07T12:00:13;20.70;42.00
25953;DHT22;13750;50.804;8.764;2022-08-07T12:06:00;20.80;40.40
25953;DHT22;13750;50.804;8.764;2022-08-07T12:08:36;21.00;40.50
25953;DHT22;13750;50.804;8.764;2022-08-07T12:11:13;20.90;40.30
25953;DHT22;13750;50.804;8.764;2022-08-07T12:13:49;21.00;40.10
25953;DHT22;13750;50.804;8.764;2022-08-07T12:16:17;21.00;40.40
25953;DHT22;13750;50.804;8.764;2022-08-07T12:24:13;21.00;39.90
25953;DHT22;13750;50.804;8.764;2022-08-07T12:26:44;21.10;38.70
25953;DHT22;13750;50.804;8.764;2022-08-07T12:29:41;21.00;38.70
25953;DHT22;13750;50.804;8.764;2022-08-07T12:34:42;21.10;37.80
25953;DHT22;13750;50.804;8.764;2022-08-07T12:37:10;21.10;37.80
25953;DHT22;13750;50.804;8.764;2022-08-07T12:39:39;21.20;37.30
25953;DHT22;13750;50.804;8.764;2022-08-07T12:42:06;21.20;37.70
25953;DHT22;13750;50.804;8.764;2022-08-07T12:44:38;21.20;38.10
25953;DHT22;13750;50.804;8.764;2022-08-07T12:52:48;21.20;38.20
25953;DHT22;13750;50.804;8.764;2022-08-07T12:55:28;21.20;38.60
25953;DHT22;13750;50.804;8.764;2022-08-07T12:57:57;21.10;39.00
25953;DHT22;13750;50.804;8.764;2022-08-07T13:00:39;21.10;39.20
25953;DHT22;13750;50.804;8.764;2022-08-07T13:03:11;21.20;39.60
25953;DHT22;13750;50.804;8.764;2022-08-07T13:08:42;21.30;39.00
25953;DHT22;13750;50.804;8.764;2022-08-07T13:16:54;21.60;37.90
25953;DHT22;13750;50.804;8.764;2022-08-07T13:22:47;21.60;38.00
25953;DHT22;13750;50.804;8.764;2022-08-07T13:25:12;21.60;37.80
25953;DHT22;13750;50.804;8.764;2022-08-07T13:30:09;21.60;37.90
25953;DHT22;13750;50.804;8.764;2022-08-07T13:32:44;21.60;38.20
25953;DHT22;13750;50.804;8.764;2022-08-07T13:35:15;21.60;38.70
25953;DHT22;13750;50.804;8.764;2022-08-07T13:38:03;21.60;38.40
25953;DHT22;13750;50.804;8.764;2022-08-07T13:43:20;21.80;38.20
25953;DHT22;13750;50.804;8.764;2022-08-07T13:45:53;21.80;38.80
25953;DHT22;13750;50.804;8.764;2022-08-07T13:48:20;21.70;39.00
25953;DHT22;13750;50.804;8.764;2022-08-07T13:50:49;21.70;38.30
25953;DHT22;13750;50.804;8.764;2022-08-07T13:53:21;21.70;38.30
25953;DHT22;13750;50.804;8.764;2022-08-07T13:55:47;21.70;38.40
25953;DHT22;13750;50.804;8.764;2022-08-07T13:58:14;21.70;38.40
25953;DHT22;13750;50.804;8.764;2022-08-07T14:01:15;21.80;37.80
25953;DHT22;13750;50.804;8.764;2022-08-07T14:03:43;22.00;37.00
25953;DHT22;13750;50.804;8.764;2022-08-07T14:06:10;22.10;36.90
25953;DHT22;13750;50.804;8.764;2022-08-07T14:08:45;22.10;37.10
25953;DHT22;13750;50.804;8.764;2022-08-07T14:11:13;22.20;37.50
25953;DHT22;13750;50.804;8.764;2022-08-07T14:13:40;22.10;37.80
25953;DHT22;13750;50.804;8.764;2022-08-07T14:16:11;22.10;37.90
25953;DHT22;13750;50.804;8.764;2022-08-07T14:18:46;22.10;38.00
25953;DHT22;13750;50.804;8.764;2022-08-07T14:21:22;22.20;38.00
25953;DHT22;13750;50.804;8.764;2022-08-07T14:26:57;22.30;37.90
25953;DHT22;13750;50.804;8.764;2022-08-07T14:29:26;22.40;37.30
25953;DHT22;13750;50.804;8.764;2022-08-07T14:31:53;22.40;36.80
25953;DHT22;13750;50.804;8.764;2022-08-07T14:34:19;22.50;36.90
25953;DHT22;13750;50.804;8.764;2022-08-07T14:36:48;22.50;36.70
25953;DHT22;13750;50.804;8.764;2022-08-07T14:39:15;22.60;36.90
25953;DHT22;13750;50.804;8.764;2022-08-07T14:41:43;22.70;36.60
25953;DHT22;13750;50.804;8.764;2022-08-07T14:44:13;22.70;36.50
25953;DHT22;13750;50.804;8.764;2022-08-07T14:46:41;22.90;36.00
25953;DHT22;13750;50.804;8.764;2022-08-07T14:49:08;22.90;36.10
25953;DHT22;13750;50.804;8.764;2022-08-07T14:51:34;22.90;36.70
25953;DHT22;13750;50.804;8.764;2022-08-07T14:54:02;23.00;35.70
25953;DHT22;13750;50.804;8.764;2022-08-07T14:56:29;23.10;35.80
25953;DHT22;13750;50.804;8.764;2022-08-07T14:59:03;23.10;36.40
25953;DHT22;13750;50.804;8.764;2022-08-07T15:01:34;23.10;35.30
25953;DHT22;13750;50.804;8.764;2022-08-07T15:04:05;23.20;35.50
25953;DHT22;13750;50.804;8.764;2022-08-07T15:06:37;23.30;35.70
25953;DHT22;13750;50.804;8.764;2022-08-07T15:09:13;23.40;36.30
25953;DHT22;13750;50.804;8.764;2022-08-07T15:11:43;23.50;36.60
25953;DHT22;13750;50.804;8.764;2022-08-07T15:14:16;23.50;36.80
25953;DHT22;13750;50.804;8.764;2022-08-07T15:16:52;23.40;36.50
25953;DHT22;13750;50.804;8.764;2022-08-07T15:19:23;23.50;36.80
25953;DHT22;13750;50.804;8.764;2022-08-07T15:21:52;23.50;37.00
25953;DHT22;13750;50.804;8.764;2022-08-07T15:24:39;23.60;35.80
25953;DHT22;13750;50.804;8.764;2022-08-07T15:27:09;23.60;34.90
25953;DHT22;13750;50.804;8.764;2022-08-07T15:29:45;23.70;34.50
25953;DHT22;13750;50.804;8.764;2022-08-07T15:32:11;23.70;34.30
25953;DHT22;13750;50.804;8.764;2022-08-07T15:34:45;23.90;34.60
25953;DHT22;13750;50.804;8.764;2022-08-07T15:37:18;23.90;34.40
25953;DHT22;13750;50.804;8.764;2022-08-07T15:39:50;23.90;34.40
25953;DHT22;13750;50.804;8.764;2022-08-07T15:45:09;24.10;34.20
25953;DHT22;13750;50.804;8.764;2022-08-07T15:47:38;24.00;34.40
25953;DHT22;13750;50.804;8.764;2022-08-07T15:50:09;24.00;34.40
25953;DHT22;13750;50.804;8.764;2022-08-07T15:52:36;24.10;35.00
25953;DHT22;13750;50.804;8.764;2022-08-07T15:55:06;24.10;35.50
25953;DHT22;13750;50.804;8.764;2022-08-07T15:57:34;24.10;34.30
25953;DHT22;13750;50.804;8.764;2022-08-07T16:00:01;24.10;33.90
25953;DHT22;13750;50.804;8.764;2022-08-07T16:02:30;24.10;33.70
25953;DHT22;13750;50.804;8.764;2022-08-07T16:05:01;24.10;33.70
25953;DHT22;13750;50.804;8.764;2022-08-07T16:07:39;24.20;34.40
25953;DHT22;13750;50.804;8.764;2022-08-07T16:10:16;24.10;33.70
25953;DHT22;13750;50.804;8.764;2022-08-07T16:21:12;24.20;34.30
25953;DHT22;13750;50.804;8.764;2022-08-07T16:27:12;24.30;34.90
25953;DHT22;13750;50.804;8.764;2022-08-07T16:32:17;24.20;34.70
25953;DHT22;13750;50.804;8.764;2022-08-07T16:34:48;24.30;33.40
25953;DHT22;13750;50.804;8.764;2022-08-07T16:37:47;24.30;33.10
25953;DHT22;13750;50.804;8.764;2022-08-07T16:43:03;24.40;32.50
25953;DHT22;13750;50.804;8.764;2022-08-07T16:50:56;24.40;32.20
25953;DHT22;13750;50.804;8.764;2022-08-07T16:53:54;24.40;32.90
25953;DHT22;13750;50.804;8.764;2022-08-07T16:59:13;24.40;32.70
25953;DHT22;13750;50.804;8.764;2022-08-07T17:04:42;24.50;32.30
25953;DHT22;13750;50.804;8.764;2022-08-07T17:08:05;24.50;33.00
25953;DHT22;13750;50.804;8.764;2022-08-07T17:10:35;24.50;33.50
25953;DHT22;13750;50.804;8.764;2022-08-07T17:18:42;24.50;32.80
25953;DHT22;13750;50.804;8.764;2022-08-07T17:21:19;24.60;32.70
25953;DHT22;13750;50.804;8.764;2022-08-07T17:29:12;24.60;32.80
25953;DHT22;13750;50.804;8.764;2022-08-07T17:32:09;24.60;32.80
25953;DHT22;13750;50.804;8.764;2022-08-07T17:34:41;24.50;32.80
25953;DHT22;13750;50.804;8.764;2022-08-07T17:37:29;24.60;32.90
25953;DHT22;13750;50.804;8.764;2022-08-07T17:40:06;24.50;32.90
25953;DHT22;13750;50.804;8.764;2022-08-07T17:45:12;24.50;33.00
25953;DHT22;13750;50.804;8.764;2022-08-07T17:47:58;24.50;33.10
25953;DHT22;13750;50.804;8.764;2022-08-07T17:53:06;24.50;33.60
25953;DHT22;13750;50.804;8.764;2022-08-07T17:55:37;24.50;33.70
25953;DHT22;13750;50.804;8.764;2022-08-07T17:58:29;24.40;33.20
25953;DHT22;13750;50.804;8.764;2022-08-07T18:00:58;24.40;33.10
25953;DHT22;13750;50.804;8.764;2022-08-07T18:03:34;24.30;33.30
25953;DHT22;13750;50.804;8.764;2022-08-07T18:06:10;24.40;33.40
25953;DHT22;13750;50.804;8.764;2022-08-07T18:13:55;24.20;33.30
25953;DHT22;13750;50.804;8.764;2022-08-07T18:16:43;24.10;33.40
25953;DHT22;13750;50.804;8.764;2022-08-07T18:24:54;23.90;33.70
25953;DHT22;13750;50.804;8.764;2022-08-07T18:27:57;23.90;34.10
25953;DHT22;13750;50.804;8.764;2022-08-07T18:33:24;23.70;34.30
25953;DHT22;13750;50.804;8.764;2022-08-07T18:36:20;23.70;34.40
25953;DHT22;13750;50.804;8.764;2022-08-07T18:44:34;23.40;34.80
25953;DHT22;13750;50.804;8.764;2022-08-07T18:49:54;23.30;34.90
25953;DHT22;13750;50.804;8.764;2022-08-07T18:58:37;23.10;35.40
25953;DHT22;13750;50.804;8.764;2022-08-07T19:03:57;23.10;35.70
25953;DHT22;13750;50.804;8.764;2022-08-07T19:06:50;23.00;35.80
25953;DHT22;13750;50.804;8.764;2022-08-07T19:09:30;23.00;36.00
25953;DHT22;13750;50.804;8.764;2022-08-07T19:27:53;22.60;37.10
25953;DHT22;13750;50.804;8.764;2022-08-07T19:30:30;22.50;37.40
25953;DHT22;13750;50.804;8.764;2022-08-07T19:33:07;22.50;37.50
25953;DHT22;13750;50.804;8.764;2022-08-07T19:35:36;22.40;37.60
25953;DHT22;13750;50.804;8.764;2022-08-07T19:38:11;22.30;37.80
25953;DHT22;13750;50.804;8.764;2022-08-07T19:40:40;22.30;37.80
25953;DHT22;13750;50.804;8.764;2022-08-07T19:43:10;22.20;37.90
25953;DHT22;13750;50.804;8.764;2022-08-07T19:45:40;22.20;38.00
25953;DHT22;13750;50.804;8.764;2022-08-07T19:48:08;22.20;38.10
25953;DHT22;13750;50.804;8.764;2022-08-07T19:50:38;22.10;38.30
25953;DHT22;13750;50.804;8.764;2022-08-07T19:53:14;22.10;38.40